createdAt,value
2023-01-21T05:23:32.784Z,3.27
2023-01-21T05:24:33.784Z,3.31
2023-01-21T05:25:33.706Z,3.43
2023-01-21T05:26:33.717Z,3.46
2023-01-21T05:27:33.682Z,3.43
2023-01-21T05:28:33.657Z,3.31
2023-01-21T05:29:33.670Z,3.34
2023-01-21T05:30:34.731Z,3.36
2023-01-21T05:31:34.540Z,3.43
2023-01-21T05:32:33.756Z,3.41
2023-01-21T05:33:33.611Z,3.46
2023-01-21T05:34:33.657Z,3.43
2023-01-21T05:35:33.650Z,3.43
2023-01-21T05:36:33.569Z,3.48
2023-01-21T05:37:33.568Z,3.46
2023-01-21T05:38:33.542Z,3.52
2023-01-21T05:39:33.572Z,3.56
2023-01-21T05:40:33.583Z,3.61
2023-01-21T05:41:33.585Z,3.58
2023-01-21T07:40:59.178Z,4.09
2023-01-21T07:41:58.767Z,4.07
2023-01-21T08:30:54.783Z,4.39
2023-01-21T08:31:55.759Z,4.31
2023-01-21T08:32:56.516Z,4.30
2023-01-21T08:33:58.261Z,4.32
2023-01-21T08:34:55.703Z,4.38
2023-01-21T08:35:55.745Z,4.45
2023-01-21T08:36:55.745Z,4.52
2023-01-21T08:37:55.893Z,4.49
2023-01-21T08:38:56.928Z,4.45
2023-01-21T08:39:55.603Z,4.40
2023-01-21T08:40:56.057Z,4.48
2023-01-21T08:41:55.584Z,4.52
2023-01-21T08:42:55.572Z,4.56
2023-01-21T08:43:55.665Z,4.57
2023-01-21T08:44:55.801Z,4.61
2023-01-21T08:45:55.568Z,4.66
2023-01-21T08:46:55.519Z,4.63
2023-01-21T08:47:55.610Z,4.52
2023-01-21T08:48:55.506Z,4.50
2023-01-21T08:49:55.496Z,4.57
2023-01-21T08:50:55.544Z,4.61
2023-01-21T08:51:55.517Z,4.64
2023-01-21T08:52:55.483Z,4.71
2023-01-21T08:53:55.495Z,4.76
2023-01-21T08:54:55.439Z,4.74
2023-01-21T08:55:55.475Z,4.71
2023-01-21T08:56:55.401Z,4.82
2023-01-21T08:57:55.466Z,4.87
2023-01-21T08:58:55.431Z,4.83
2023-01-21T08:59:55.397Z,4.83
2023-01-21T09:00:55.397Z,4.79
2023-01-21T09:02:03.007Z,4.79
2023-01-21T09:02:55.339Z,4.84
2023-01-21T09:03:55.402Z,4.86
2023-01-21T09:04:55.323Z,4.92
2023-01-21T09:05:55.318Z,4.86
2023-01-21T09:06:55.336Z,4.95
2023-01-21T09:07:57.984Z,4.92
2023-01-21T09:08:55.327Z,4.89
2023-01-21T09:09:55.341Z,4.84
2023-01-21T09:10:55.276Z,4.84
2023-01-21T09:11:55.282Z,4.89
2023-01-21T09:12:55.256Z,4.89
2023-01-21T09:13:55.241Z,4.84
2023-01-21T09:14:55.239Z,4.83
2023-01-21T09:15:55.238Z,4.89
2023-01-21T09:16:55.223Z,4.89
2023-01-21T09:17:55.196Z,4.89
2023-01-21T09:18:55.190Z,4.82
2023-01-21T09:19:55.573Z,4.84
2023-01-21T09:20:55.131Z,4.78
2023-01-21T09:21:55.190Z,4.86
2023-01-21T09:22:55.123Z,4.79
2023-01-21T09:23:55.263Z,4.87
2023-01-21T09:24:55.137Z,4.87
2023-01-21T09:25:55.123Z,4.94
2023-01-21T09:26:55.128Z,5.01
2023-01-21T09:27:55.119Z,4.98
2023-01-21T09:28:55.054Z,4.87
2023-01-21T09:29:55.070Z,4.94
2023-01-21T09:30:55.136Z,4.97
2023-01-21T09:31:55.120Z,4.86
2023-01-21T09:32:55.043Z,4.94
2023-01-21T09:33:55.785Z,4.89
2023-01-21T09:34:55.017Z,4.90
2023-01-21T09:35:54.988Z,4.95
2023-01-21T09:36:54.981Z,4.90
2023-01-21T09:37:55.005Z,4.95
2023-01-21T09:38:55.051Z,4.87
2023-01-21T09:39:54.947Z,4.86
2023-01-21T09:40:54.970Z,5.02
2023-01-21T09:41:54.947Z,5.05
2023-01-21T09:42:54.955Z,4.97
2023-01-21T09:43:54.909Z,4.98
2023-01-21T09:44:54.979Z,4.97
2023-01-21T09:45:54.945Z,4.94
2023-01-21T09:46:54.908Z,4.95
2023-01-21T09:47:54.872Z,4.89
2023-01-21T09:48:54.943Z,4.84
2023-01-21T09:49:55.477Z,4.90
2023-01-21T09:50:54.829Z,5.01
2023-01-21T09:51:54.830Z,5.05
2023-01-21T09:52:55.449Z,5.15
2023-01-21T09:53:54.919Z,5.15
2023-01-21T09:54:54.821Z,5.13
2023-01-21T09:55:54.764Z,5.26
2023-01-21T09:56:54.794Z,5.34
2023-01-21T09:57:54.762Z,5.37
2023-01-21T09:58:54.741Z,5.38
2023-01-21T09:59:54.735Z,5.46
2023-01-21T10:00:54.824Z,5.56
2023-01-21T10:01:54.745Z,5.61
2023-01-21T10:02:54.721Z,5.74
2023-01-21T10:03:54.693Z,5.80
2023-01-21T10:04:54.687Z,5.80
2023-01-21T10:05:54.716Z,5.84
2023-01-21T10:06:54.639Z,5.84
2023-01-21T10:07:55.263Z,5.90
2023-01-21T10:08:54.605Z,6.06
2023-01-21T10:09:54.674Z,5.99
2023-01-21T10:10:54.639Z,6.13
2023-01-21T10:11:54.679Z,6.09
2023-01-21T10:12:54.663Z,6.02
2023-01-21T10:13:54.569Z,5.88
2023-01-21T10:14:54.549Z,5.84
2023-01-21T10:15:54.617Z,5.80
2023-01-21T10:16:54.610Z,5.77
2023-01-21T10:17:54.632Z,5.69
2023-01-21T10:18:54.546Z,5.79
2023-01-21T10:19:54.517Z,6.05
2023-01-21T10:20:54.566Z,6.13
2023-01-21T10:21:54.488Z,6.22
2023-01-21T10:22:54.527Z,6.44
2023-01-21T10:23:54.472Z,6.41
2023-01-21T10:24:54.444Z,6.62
2023-01-21T10:25:54.452Z,6.60
2023-01-21T10:26:54.405Z,6.67
2023-01-21T10:27:54.531Z,6.53
2023-01-21T10:28:54.429Z,6.62
2023-01-21T10:29:54.396Z,6.62
2023-01-21T10:30:54.576Z,6.49
2023-01-21T10:31:54.968Z,6.34
2023-01-21T10:32:54.405Z,6.26
2023-01-21T10:33:54.411Z,5.99
2023-01-21T10:34:54.321Z,5.91
2023-01-21T10:35:54.362Z,5.81
2023-01-21T10:36:54.317Z,5.79
2023-01-21T10:37:54.472Z,5.95
2023-01-21T10:38:54.908Z,5.79
2023-01-21T10:39:54.307Z,5.81
2023-01-21T10:40:54.354Z,5.72
2023-01-21T10:41:54.613Z,5.73
2023-01-21T10:42:54.270Z,5.81
2023-01-21T10:43:54.340Z,5.91
2023-01-21T10:44:54.463Z,5.91
2023-01-21T10:45:54.272Z,5.94
2023-01-21T10:46:54.226Z,6.02
2023-01-21T10:47:54.661Z,6.09
2023-01-21T10:48:54.231Z,6.16
2023-01-21T10:49:54.299Z,6.01
2023-01-21T10:50:54.306Z,5.94
2023-01-21T10:51:54.178Z,5.81
2023-01-21T10:52:55.128Z,5.74
2023-01-21T10:53:54.145Z,5.79
2023-01-21T10:54:54.149Z,5.74
2023-01-21T10:55:54.145Z,5.76
2023-01-21T10:56:54.112Z,5.67
2023-01-21T10:57:54.140Z,5.61
2023-01-21T10:58:54.061Z,5.56
2023-01-21T10:59:54.079Z,5.51
2023-01-21T11:00:54.043Z,5.40
2023-01-21T11:01:54.050Z,5.36
2023-01-21T11:02:54.080Z,5.37
2023-01-21T11:03:54.001Z,5.34
2023-01-21T11:04:53.994Z,5.34
2023-01-21T11:05:53.990Z,5.46
2023-01-21T11:06:55.403Z,5.44
2023-01-21T11:07:54.008Z,5.44
2023-01-21T11:08:54.057Z,5.43
2023-01-21T11:09:53.950Z,5.43
2023-01-21T11:10:54.137Z,5.43
2023-01-21T11:11:53.952Z,5.47
2023-01-21T11:12:53.961Z,5.46
2023-01-21T11:13:53.946Z,5.40
2023-01-21T11:14:53.934Z,5.36
2023-01-21T11:15:54.101Z,5.28
2023-01-21T11:16:53.858Z,5.22
2023-01-21T11:17:53.950Z,5.13
2023-01-21T11:18:53.875Z,5.10
2023-01-21T11:19:53.839Z,5.20
2023-01-21T11:20:53.812Z,5.33
2023-01-21T11:21:53.853Z,5.43
2023-01-21T11:22:53.807Z,5.51
2023-01-21T11:23:53.814Z,5.67
2023-01-21T11:24:53.799Z,5.70
2023-01-21T11:25:53.853Z,5.67
2023-01-21T11:26:53.793Z,5.56
2023-01-21T11:27:53.764Z,5.61
2023-01-21T11:28:53.751Z,5.62
2023-01-21T11:29:53.755Z,5.51
2023-01-21T11:30:54.273Z,5.44
2023-01-21T11:31:53.846Z,5.34
2023-01-21T11:32:53.704Z,5.37
2023-01-21T11:33:53.686Z,5.33
2023-01-21T11:34:53.710Z,5.34
2023-01-21T11:35:53.707Z,5.37
2023-01-21T11:36:53.627Z,5.29
2023-01-21T11:37:53.708Z,5.25
2023-01-21T11:38:53.609Z,5.29
2023-01-21T11:39:53.682Z,5.41
2023-01-21T11:40:53.580Z,5.58
2023-01-21T11:41:53.596Z,5.73
2023-01-21T11:42:53.713Z,5.88
2023-01-21T11:43:53.594Z,5.92
2023-01-21T11:44:53.628Z,6.05
2023-01-21T11:45:53.720Z,6.02
2023-01-21T11:46:53.805Z,6.01
2023-01-21T11:47:53.546Z,6.25
2023-01-21T11:48:54.242Z,6.47
2023-01-21T11:49:55.457Z,6.65
2023-01-21T11:50:53.513Z,6.65
2023-01-21T11:51:54.419Z,6.67
2023-01-21T11:52:53.503Z,6.62
2023-01-21T11:53:53.483Z,6.49
2023-01-21T11:54:53.468Z,6.65
2023-01-21T11:55:53.445Z,6.65
2023-01-21T11:56:53.445Z,6.57
2023-01-21T11:57:53.736Z,6.56
2023-01-21T11:58:53.461Z,6.72
2023-01-21T11:59:54.380Z,6.54
2023-01-21T12:00:53.366Z,6.57
2023-01-21T12:01:53.400Z,6.75
2023-01-21T12:02:53.751Z,6.82
2023-01-21T12:03:53.442Z,6.83
2023-01-21T12:04:53.317Z,6.68
2023-01-21T12:05:53.311Z,6.54
2023-01-21T12:06:53.294Z,6.41
2023-01-21T12:07:53.314Z,6.29
2023-01-21T12:08:53.303Z,6.06
2023-01-21T12:09:53.323Z,5.94
2023-01-21T12:10:53.249Z,6.05
2023-01-21T12:11:53.347Z,6.12
2023-01-21T12:12:54.126Z,6.17
2023-01-21T12:13:53.237Z,6.13
2023-01-21T12:14:53.205Z,6.09
2023-01-21T12:15:53.284Z,6.22
2023-01-21T12:16:53.230Z,6.16
2023-01-21T12:17:53.198Z,6.19
2023-01-21T12:18:53.178Z,6.41
2023-01-21T12:19:53.157Z,6.34
2023-01-21T12:20:53.142Z,6.19
2023-01-21T12:21:53.184Z,6.25
2023-01-21T12:22:53.152Z,6.35
2023-01-21T12:23:53.122Z,6.41
2023-01-21T12:24:53.084Z,6.43
2023-01-21T12:25:53.112Z,6.53
2023-01-21T12:26:53.110Z,6.57
2023-01-21T12:27:53.079Z,6.67
2023-01-21T12:28:53.040Z,6.62
2023-01-21T12:29:53.068Z,6.52
2023-01-21T12:30:53.139Z,6.53
2023-01-21T12:31:53.106Z,6.50
2023-01-21T12:32:53.036Z,6.44
2023-01-21T12:33:53.019Z,6.34
2023-01-21T12:34:53.014Z,6.20
2023-01-21T12:35:52.990Z,5.98
2023-01-21T12:36:52.983Z,6.13
2023-01-21T12:37:52.976Z,6.10
2023-01-21T12:38:52.928Z,6.13
2023-01-21T12:39:52.974Z,5.98
2023-01-21T12:40:52.938Z,6.05
2023-01-21T12:41:52.946Z,6.19
2023-01-21T12:42:52.911Z,6.20
2023-01-21T12:43:52.902Z,6.31
2023-01-21T12:44:52.894Z,6.32
2023-01-21T12:45:52.884Z,6.35
2023-01-21T12:46:52.991Z,6.41
2023-01-21T12:47:52.912Z,6.34
2023-01-21T12:48:52.850Z,6.25
2023-01-21T12:49:52.878Z,6.19
2023-01-21T12:50:52.866Z,6.05
2023-01-21T12:51:52.865Z,5.97
2023-01-21T12:52:52.765Z,6.01
2023-01-21T12:53:52.826Z,5.94
2023-01-21T12:54:52.792Z,5.97
2023-01-21T12:55:52.885Z,6.10
2023-01-21T12:56:52.845Z,6.12
2023-01-21T12:57:52.742Z,6.19
2023-01-21T12:58:52.734Z,6.20
2023-01-21T12:59:52.695Z,6.16
2023-01-21T13:00:52.779Z,6.10
2023-01-21T13:01:52.744Z,6.01
2023-01-21T13:02:53.079Z,5.97
2023-01-21T13:03:52.662Z,5.95
2023-01-21T13:04:52.710Z,6.02
2023-01-21T13:05:52.660Z,7.43
2023-01-21T13:06:54.425Z,8.36
2023-01-21T13:07:52.613Z,8.97
2023-01-21T13:08:52.634Z,9.73
2023-01-21T13:09:52.671Z,9.95
2023-01-21T13:10:52.671Z,10.46
2023-01-21T13:11:52.617Z,11.15
2023-01-21T13:12:52.606Z,11.35
2023-01-21T13:13:54.684Z,11.53
2023-01-21T13:14:52.606Z,11.58
2023-01-21T13:15:53.338Z,10.98
2023-01-21T13:16:52.556Z,10.45
2023-01-21T13:17:52.826Z,10.24
2023-01-21T13:18:52.568Z,10.13
2023-01-21T13:19:52.593Z,10.13
2023-01-21T13:20:52.625Z,9.56
2023-01-21T13:21:52.456Z,8.66
2023-01-21T13:22:52.478Z,8.41
2023-01-21T13:23:52.551Z,9.21
2023-01-21T13:24:52.477Z,9.30
2023-01-21T13:25:52.732Z,9.16
2023-01-21T13:26:52.445Z,9.49
2023-01-21T13:27:52.401Z,9.59
2023-01-21T13:29:48.170Z,9.62
2023-01-21T13:30:49.166Z,9.90
2023-01-21T13:31:51.186Z,10.28
2023-01-21T13:32:49.107Z,10.57
2023-01-21T13:33:49.119Z,10.12
2023-01-21T13:34:49.096Z,10.15
2023-01-21T13:35:49.157Z,10.33
2023-01-21T13:36:49.078Z,10.58
2023-01-21T13:37:49.098Z,10.20
2023-01-21T13:38:49.048Z,9.97
2023-01-21T13:39:49.064Z,10.17
2023-01-21T13:40:49.039Z,10.39
2023-01-21T13:41:49.024Z,10.34
2023-01-21T13:42:49.037Z,10.23
2023-01-21T13:43:49.006Z,10.28
2023-01-21T13:44:49.793Z,10.42
2023-01-21T13:45:49.039Z,10.46
2023-01-21T13:46:48.968Z,10.36
2023-01-21T13:47:49.056Z,9.56
2023-01-21T13:48:49.047Z,8.60
2023-01-21T13:49:50.218Z,9.02
2023-01-21T13:50:49.926Z,8.77
2023-01-21T13:51:48.957Z,7.46
2023-01-21T13:52:48.895Z,6.77
2023-01-21T13:53:48.935Z,6.44
2023-01-21T13:54:48.875Z,6.32
2023-01-21T13:55:48.848Z,6.16
2023-01-21T13:56:48.879Z,6.20
2023-01-21T13:57:48.872Z,7.05
2023-01-21T14:00:10.336Z,6.34
2023-01-21T14:01:11.340Z,6.01
2023-01-21T14:02:11.741Z,5.84
2023-01-21T14:03:11.248Z,5.83
2023-01-21T14:04:11.264Z,5.90
2023-01-21T14:05:12.261Z,6.39
2023-01-21T14:11:40.016Z,6.54
2023-01-21T14:12:40.990Z,7.23
2023-01-21T14:13:40.962Z,7.90
2023-01-21T14:14:40.953Z,8.71
2023-01-21T14:15:41.008Z,8.97
2023-01-21T14:16:40.962Z,9.33
2023-01-21T14:17:40.926Z,9.64
2023-01-21T14:18:40.900Z,9.77
2023-01-21T14:19:40.947Z,9.52
2023-01-21T14:32:31.673Z,8.92
2023-01-21T14:33:32.653Z,9.13
2023-01-21T14:34:33.395Z,9.18
2023-01-21T14:35:32.680Z,9.31
2023-01-21T14:36:32.587Z,9.22
2023-01-21T14:37:33.451Z,9.09
2023-01-21T14:38:33.931Z,8.95
2023-01-21T14:39:32.900Z,8.81
2023-01-21T14:40:32.553Z,9.00
2023-01-21T14:41:32.578Z,8.60
2023-01-21T14:42:34.349Z,8.28
2023-01-21T14:43:32.622Z,8.26
2023-01-21T14:44:32.557Z,8.18
2023-01-21T14:45:32.557Z,7.74
2023-01-21T14:46:33.532Z,7.51
2023-01-21T14:47:33.451Z,7.41
2023-01-21T14:48:32.473Z,6.72
2023-01-21T14:49:32.571Z,6.59
2023-01-21T14:50:32.503Z,6.64
2023-01-21T14:51:32.478Z,6.77
2023-01-21T14:52:32.430Z,6.52
2023-01-21T14:53:32.499Z,5.97
2023-01-21T14:54:32.694Z,5.79
2023-01-21T14:55:32.434Z,5.59
2023-01-21T14:56:32.379Z,5.55
2023-01-21T14:57:32.394Z,5.41
2023-01-21T14:58:32.358Z,5.29
2023-01-21T14:59:32.477Z,5.26
2023-01-21T15:00:33.390Z,5.51
2023-01-21T15:01:33.005Z,5.79
2023-01-21T15:02:32.392Z,6.05
2023-01-21T15:03:32.360Z,5.81
2023-01-21T15:04:32.593Z,5.62
2023-01-21T15:05:32.656Z,5.84
2023-01-21T15:06:32.377Z,6.17
2023-01-21T15:07:32.254Z,6.59
2023-01-21T15:08:32.255Z,6.68
2023-01-21T15:09:33.449Z,6.80
2023-01-21T15:10:32.272Z,6.85
2023-01-21T15:11:32.206Z,6.85
2023-01-21T15:12:32.435Z,6.92
2023-01-21T15:13:32.196Z,6.87
2023-01-21T15:14:32.197Z,6.87
2023-01-21T15:15:32.927Z,7.11
2023-01-21T15:16:33.540Z,7.22
2023-01-21T15:17:32.177Z,7.29
2023-01-21T15:18:32.145Z,7.37
2023-01-21T15:19:32.125Z,7.22
2023-01-21T15:20:33.000Z,6.96
2023-01-21T15:21:32.138Z,6.65
2023-01-21T15:22:32.117Z,6.39
2023-01-21T15:28:50.103Z,6.12
2023-01-21T15:29:51.826Z,6.02
2023-01-21T15:30:58.605Z,5.91
2023-01-21T15:31:50.967Z,5.55
2023-01-21T15:32:50.987Z,5.34
2023-01-21T15:33:50.868Z,5.20
2023-01-21T15:34:51.712Z,5.15
2023-01-21T15:35:50.899Z,5.01
2023-01-21T15:36:50.915Z,4.90
2023-01-21T15:37:50.874Z,4.68
2023-01-21T15:38:51.142Z,4.58
2023-01-21T15:39:50.857Z,4.46
2023-01-21T15:40:50.799Z,4.42
2023-01-21T15:41:51.196Z,4.40
2023-01-21T15:42:50.775Z,4.38
2023-01-21T15:43:50.733Z,4.36
2023-01-21T15:44:51.327Z,4.36
2023-01-21T15:45:51.900Z,4.38
2023-01-21T15:46:50.753Z,4.36
2023-01-21T15:47:50.768Z,4.36
2023-01-21T15:48:50.705Z,4.32
2023-01-21T15:49:50.687Z,4.31
2023-01-21T15:50:50.729Z,4.25
2023-01-21T15:51:50.708Z,4.25
2023-01-21T15:52:51.829Z,4.27
2023-01-21T15:53:52.158Z,4.30
2023-01-21T15:54:50.640Z,4.27
2023-01-21T15:55:50.614Z,4.25
2023-01-21T15:56:51.316Z,4.25
2023-01-21T15:57:50.586Z,4.20
2023-01-21T15:58:51.329Z,4.16
2023-01-21T15:59:50.810Z,4.12
2023-01-21T16:00:52.295Z,4.16
2023-01-21T16:01:50.835Z,4.13
2023-01-21T16:02:52.469Z,4.03
2023-01-21T16:03:50.512Z,3.96
2023-01-21T16:04:52.335Z,3.86
2023-01-21T16:05:50.534Z,3.82
2023-01-21T16:06:50.547Z,3.84
2023-01-21T16:07:50.475Z,3.82
2023-01-21T16:08:50.558Z,3.77
2023-01-21T16:09:50.742Z,3.77
2023-01-21T16:10:50.438Z,3.74
2023-01-21T16:11:53.308Z,3.77
2023-01-21T16:12:52.815Z,3.78
2023-01-21T16:13:50.438Z,3.78
2023-01-21T16:14:51.301Z,3.78
2023-01-21T16:15:50.477Z,3.78
2023-01-21T16:16:50.850Z,3.82
2023-01-21T16:17:50.391Z,3.81
2023-01-21T16:18:50.358Z,3.77
2023-01-21T16:19:50.362Z,3.76
2023-01-21T16:20:50.597Z,3.76
2023-01-21T16:30:58.870Z,3.78
2023-01-21T16:31:59.966Z,3.67
2023-01-21T16:33:01.250Z,3.55
2023-01-21T16:33:59.702Z,3.46
2023-01-21T16:34:59.732Z,3.40
2023-01-21T16:35:59.694Z,3.37
2023-01-21T16:36:59.690Z,3.37
2023-01-21T16:37:59.728Z,3.40
2023-01-21T16:38:59.674Z,3.40
2023-01-21T16:39:59.683Z,3.36
2023-01-21T16:40:59.723Z,3.37
2023-01-21T16:41:59.598Z,3.31
2023-01-21T16:42:59.696Z,3.31
2023-01-21T16:43:59.594Z,3.36
2023-01-21T16:44:59.601Z,3.45
2023-01-21T16:45:59.624Z,3.49
2023-01-21T16:46:59.581Z,3.50
2023-01-21T16:47:59.819Z,3.56
2023-01-21T16:49:00.136Z,3.56
2023-01-21T16:49:59.540Z,3.52
2023-01-21T16:50:59.743Z,3.50
2023-01-21T16:51:59.508Z,3.45
2023-01-21T16:52:59.599Z,3.43
2023-01-21T16:53:59.484Z,3.43
2023-01-21T16:54:59.509Z,3.37
2023-01-21T16:55:59.556Z,3.33
2023-01-21T16:56:59.483Z,3.22
2023-01-21T16:57:59.462Z,3.27
2023-01-21T16:58:59.439Z,3.29
2023-01-21T16:59:59.438Z,3.29
2023-01-21T17:00:59.404Z,3.30
2023-01-21T17:01:59.442Z,3.27
2023-01-21T17:03:00.457Z,3.29
2023-01-21T17:03:59.370Z,3.34
2023-01-21T17:04:59.377Z,3.34
2023-01-21T17:05:59.349Z,3.36
2023-01-21T17:06:59.444Z,3.40
2023-01-21T17:07:59.568Z,3.45
2023-01-21T17:08:59.342Z,3.50
2023-01-21T17:09:59.297Z,3.55
2023-01-21T17:10:59.354Z,3.53
2023-01-21T17:11:59.355Z,3.52
2023-01-21T17:37:58.431Z,4.09
2023-01-21T17:56:19.718Z,3.92
2023-01-21T18:17:23.113Z,4.14
2023-01-21T18:23:56.492Z,4.14
2023-01-21T18:24:57.443Z,4.14
2023-01-21T18:25:57.414Z,4.12
2023-01-21T18:26:57.461Z,4.07
2023-01-21T18:27:57.470Z,4.06
2023-01-21T18:28:57.398Z,4.00
2023-01-21T18:29:57.421Z,3.99
2023-01-21T18:30:57.685Z,4.04
2023-01-21T18:31:57.445Z,4.02
2023-01-21T18:32:57.345Z,4.02
2023-01-21T18:33:57.352Z,4.07
2023-01-21T18:34:57.404Z,4.03
2023-01-21T18:35:57.302Z,4.04
2023-01-21T18:36:57.299Z,4.10
2023-01-21T18:37:57.275Z,4.16
2023-01-21T18:38:57.320Z,4.16
2023-01-21T18:39:57.251Z,4.18
2023-01-21T18:40:57.254Z,4.21
2023-01-21T18:41:57.224Z,4.14
2023-01-21T18:42:57.273Z,4.21
2023-01-21T18:43:57.365Z,4.27
2023-01-21T18:44:58.304Z,4.22
2023-01-21T18:45:57.195Z,4.21
2023-01-21T18:46:57.219Z,4.16
2023-01-21T18:47:57.222Z,4.16
2023-01-21T18:48:57.265Z,4.21
2023-01-21T18:49:57.132Z,4.25
2023-01-21T18:50:57.210Z,4.25
2023-01-21T18:51:57.779Z,4.28
2023-01-21T18:52:57.160Z,4.30
2023-01-21T18:53:57.717Z,4.34
2023-01-21T18:54:57.106Z,4.38
2023-01-21T18:55:57.093Z,4.38
2023-01-21T18:56:57.122Z,4.32
2023-01-21T18:57:57.083Z,4.28
2023-01-21T18:58:57.067Z,4.30
2023-01-21T18:59:57.123Z,4.34
2023-01-21T19:00:57.120Z,4.36
2023-01-21T19:01:57.155Z,4.34
2023-01-21T19:02:57.054Z,4.36
2023-01-21T19:03:56.997Z,4.22
2023-01-21T19:04:57.856Z,4.12
2023-01-21T19:05:56.991Z,4.09
2023-01-21T19:06:57.067Z,4.09
2023-01-21T19:07:56.997Z,4.14
2023-01-21T19:08:57.474Z,4.20
2023-01-21T19:09:57.822Z,4.16
2023-01-21T19:10:56.934Z,4.09
2023-01-21T19:11:57.208Z,4.12
2023-01-21T19:12:56.883Z,4.12
2023-01-21T19:13:57.174Z,4.12
2023-01-21T19:14:56.975Z,4.13
2023-01-21T19:15:57.032Z,4.13
2023-01-21T19:16:56.969Z,4.13
2023-01-21T19:17:57.908Z,4.14
2023-01-21T19:18:57.052Z,4.16
2023-01-21T19:19:57.748Z,4.16
2023-01-21T19:20:56.881Z,4.16
2023-01-21T19:21:56.929Z,4.12
2023-01-21T19:22:57.860Z,4.14
2023-01-21T19:23:57.905Z,4.13
2023-01-21T19:24:56.824Z,4.14
2023-01-21T19:25:56.923Z,4.21
2023-01-21T19:26:56.823Z,4.21
2023-01-21T19:27:58.144Z,4.24
2023-01-21T19:28:56.741Z,4.25
2023-01-21T19:29:56.776Z,4.24
2023-01-21T19:30:56.774Z,4.21
2023-01-21T19:31:56.893Z,4.16
2023-01-21T19:32:56.777Z,4.16
2023-01-21T19:33:57.677Z,4.16
2023-01-21T19:34:57.312Z,4.06
2023-01-21T19:35:56.722Z,4.04
2023-01-21T19:36:56.693Z,4.03
2023-01-21T19:37:56.740Z,4.06
2023-01-21T19:38:56.610Z,4.09
2023-01-21T19:39:56.631Z,4.02
2023-01-21T19:40:56.713Z,3.99
2023-01-21T19:42:07.581Z,4.03
2023-01-21T19:42:56.591Z,4.10
2023-01-21T19:43:56.589Z,4.09
2023-01-21T19:44:56.532Z,4.10
2023-01-21T19:45:56.528Z,4.10
2023-01-21T19:46:56.655Z,4.09
2023-01-21T19:47:56.715Z,4.20
2023-01-21T19:48:56.658Z,4.18
2023-01-21T19:49:56.633Z,4.20
2023-01-21T19:50:56.541Z,4.20
2023-01-21T19:51:56.609Z,4.24
2023-01-21T19:52:56.477Z,4.24
2023-01-21T19:53:56.478Z,4.16
2023-01-21T19:54:57.339Z,4.18
2023-01-21T19:55:56.417Z,4.21
2023-01-21T19:56:56.426Z,4.27
2023-01-21T19:57:56.467Z,4.30
2023-01-21T19:58:56.358Z,4.28
2023-01-21T19:59:56.368Z,4.28
2023-01-21T20:03:13.602Z,4.43
2023-01-21T20:04:14.469Z,4.31
2023-01-21T20:05:14.503Z,4.32
2023-01-21T20:06:14.432Z,4.27
2023-01-21T20:07:14.401Z,4.22
2023-01-21T20:08:14.547Z,4.27
2023-01-21T20:09:14.368Z,4.22
2023-01-21T20:10:14.372Z,4.28
2023-01-21T20:11:14.357Z,4.24
2023-01-21T20:12:14.365Z,4.27
2023-01-21T20:13:14.336Z,4.28
2023-01-21T20:14:15.335Z,4.34
2023-01-21T20:15:14.325Z,4.36
2023-01-21T20:16:14.584Z,4.28
2023-01-21T20:17:14.286Z,4.24
2023-01-21T20:18:14.310Z,4.21
2023-01-21T20:19:16.854Z,4.30
2023-01-21T20:20:14.273Z,4.28
2023-01-21T20:21:14.254Z,4.21
2023-01-21T20:22:14.282Z,4.27
2023-01-21T20:23:14.203Z,4.36
2023-01-21T20:24:14.283Z,4.48
2023-01-21T20:25:14.232Z,4.40
2023-01-21T20:26:14.259Z,4.30
2023-01-21T20:27:14.356Z,4.25
2023-01-21T20:28:14.303Z,4.25
2023-01-21T20:29:14.212Z,4.20
2023-01-21T20:30:16.355Z,4.20
2023-01-21T20:31:14.287Z,4.20
2023-01-21T20:35:09.221Z,4.07
2023-01-21T20:36:09.963Z,4.00
2023-01-21T20:37:09.946Z,3.92
2023-01-21T20:38:09.943Z,3.91
2023-01-21T20:39:10.031Z,3.81
2023-01-21T20:40:09.946Z,3.77
2023-01-21T20:41:09.900Z,3.78
2023-01-21T20:42:09.913Z,3.70
2023-01-21T20:43:09.991Z,3.67
2023-01-21T20:44:09.867Z,3.61
2023-01-21T20:45:09.875Z,3.58
2023-01-21T20:46:09.918Z,3.64
2023-01-21T20:47:09.815Z,3.68
2023-01-21T20:53:00.099Z,3.86
2023-01-21T20:59:33.594Z,3.71
2023-01-21T21:00:34.715Z,3.66
2023-01-21T21:01:42.089Z,3.70
2023-01-21T21:02:35.678Z,3.67
2023-01-21T21:03:34.544Z,3.52
2023-01-21T21:04:34.541Z,3.45
2023-01-21T21:05:34.505Z,3.40
2023-01-21T21:06:34.500Z,3.34
2023-01-21T21:07:34.479Z,3.36
2023-01-21T21:08:34.507Z,3.27
2023-01-21T21:09:34.435Z,3.26
2023-01-21T21:10:34.484Z,3.18
2023-01-21T21:11:34.423Z,3.24
2023-01-21T21:12:34.410Z,3.21
2023-01-21T21:13:34.375Z,3.16
2023-01-21T21:14:34.395Z,3.08
2023-01-21T21:15:34.419Z,3.12
2023-01-21T21:16:34.462Z,3.06
2023-01-21T21:17:34.595Z,3.11
2023-01-21T21:18:34.971Z,3.08
2023-01-21T21:19:34.318Z,3.00
2023-01-21T21:20:34.386Z,2.94
2023-01-21T21:21:35.353Z,2.87
2023-01-21T21:22:34.332Z,2.88
2023-01-21T21:23:34.262Z,2.93
2023-01-21T21:24:34.280Z,2.88
2023-01-21T21:25:34.245Z,2.88
2023-01-21T21:26:34.311Z,2.82
2023-01-21T21:27:34.220Z,2.83
2023-01-21T21:28:34.271Z,2.83
2023-01-21T21:29:34.245Z,2.76
2023-01-21T21:30:34.432Z,2.79
2023-01-21T21:31:34.280Z,2.77
2023-01-21T21:32:34.219Z,2.85
2023-01-21T21:33:34.182Z,2.88
2023-01-21T21:34:34.240Z,2.79
2023-01-21T21:35:34.141Z,2.75
2023-01-21T21:36:34.177Z,2.75
2023-01-21T21:37:34.127Z,2.73
2023-01-21T21:38:34.150Z,2.75
2023-01-21T21:39:34.128Z,2.75
2023-01-21T21:40:34.099Z,2.76
2023-01-21T21:41:34.197Z,2.75
2023-01-21T21:42:34.106Z,2.75
2023-01-21T21:43:34.066Z,2.79
2023-01-21T21:44:34.245Z,2.82
2023-01-21T21:45:34.300Z,2.85
2023-01-21T21:46:34.066Z,2.88
2023-01-21T21:47:34.035Z,2.88
2023-01-21T21:48:34.109Z,2.90
2023-01-21T21:49:33.999Z,2.91
2023-01-21T21:50:33.996Z,2.98
2023-01-21T21:51:36.560Z,3.01
2023-01-21T21:52:34.166Z,2.95
2023-01-21T21:53:33.972Z,2.93
2023-01-21T21:54:33.987Z,2.87
2023-01-21T21:55:34.186Z,2.94
2023-01-21T21:56:33.955Z,2.98
2023-01-21T21:57:33.960Z,2.98
2023-01-21T21:58:33.975Z,3.00
2023-01-21T21:59:33.911Z,3.00
2023-01-21T22:00:33.995Z,3.05
2023-01-21T22:01:33.931Z,3.01
2023-01-21T22:02:33.960Z,2.95
2023-01-21T22:03:33.833Z,2.93
2023-01-21T22:04:33.831Z,2.91
2023-01-21T22:05:33.844Z,2.97
2023-01-21T22:06:33.827Z,2.97
2023-01-21T22:07:33.812Z,2.94
2023-01-21T22:08:33.778Z,2.90
2023-01-21T22:09:34.629Z,2.90
2023-01-21T22:10:33.769Z,2.93
2023-01-21T22:11:33.770Z,2.98
2023-01-21T22:12:33.753Z,3.01
2023-01-21T22:13:33.739Z,3.06
2023-01-21T22:14:33.794Z,3.11
2023-01-21T22:15:34.820Z,3.13
2023-01-21T22:16:33.764Z,3.09
2023-01-21T22:17:33.681Z,3.15
2023-01-21T22:18:34.607Z,3.19
2023-01-21T22:19:33.696Z,3.18
2023-01-21T22:20:33.714Z,3.16
2023-01-21T22:21:33.651Z,3.08
2023-01-21T22:22:33.651Z,3.05
2023-01-21T22:23:33.628Z,3.01
2023-01-21T22:24:33.715Z,3.01
2023-01-21T22:25:33.593Z,3.03
2023-01-21T22:26:33.589Z,3.03
2023-01-21T22:27:33.636Z,3.05
2023-01-21T22:28:33.568Z,3.05
2023-01-21T22:29:33.615Z,3.01
2023-01-21T22:30:33.701Z,2.98
2023-01-21T22:31:40.002Z,3.09
2023-01-21T22:32:33.508Z,3.03
2023-01-21T22:33:33.512Z,3.00
2023-01-21T22:34:33.586Z,2.91
2023-01-21T22:35:33.991Z,2.83
2023-01-21T22:36:33.525Z,2.77
2023-01-21T22:37:33.488Z,2.80
2023-01-21T22:38:33.562Z,2.79
2023-01-21T22:39:33.520Z,2.82
2023-01-21T22:40:33.467Z,2.79
2023-01-21T22:41:33.388Z,2.80
2023-01-21T22:42:33.401Z,2.83
2023-01-21T22:43:33.420Z,2.83
2023-01-21T22:44:33.522Z,2.83
2023-01-21T22:45:33.444Z,2.80
2023-01-21T22:46:33.409Z,2.79
2023-01-21T22:47:33.357Z,2.82
2023-01-21T22:48:33.413Z,2.83
2023-01-21T22:49:33.305Z,2.85
2023-01-21T22:50:33.445Z,2.85
2023-01-21T22:51:33.290Z,2.87
2023-01-21T22:52:33.302Z,2.93
2023-01-21T22:53:33.255Z,2.88
2023-01-21T22:54:33.319Z,2.85
2023-01-21T22:55:33.564Z,2.80
2023-01-21T22:56:50.394Z,2.90
2023-01-21T22:57:33.223Z,2.95
2023-01-21T22:58:33.242Z,2.97
2023-01-21T22:59:33.236Z,3.03
2023-01-21T23:00:33.248Z,3.00
2023-01-21T23:01:33.255Z,3.03
2023-01-21T23:02:33.214Z,3.09
2023-01-21T23:03:33.213Z,3.08
2023-01-21T23:04:33.191Z,3.06
2023-01-21T23:05:33.240Z,3.00
2023-01-21T23:06:33.143Z,3.00
2023-01-21T23:07:33.109Z,3.00
2023-01-21T23:08:33.138Z,3.05
2023-01-21T23:09:33.182Z,2.97
2023-01-21T23:10:34.042Z,2.88
2023-01-21T23:11:33.077Z,2.82
2023-01-21T23:12:33.115Z,2.82
2023-01-21T23:13:33.080Z,2.82
2023-01-21T23:14:33.054Z,2.82
2023-01-21T23:15:33.117Z,2.82
2023-01-21T23:16:33.100Z,2.82
2023-01-21T23:17:33.021Z,2.85
2023-01-21T23:18:33.089Z,2.85
2023-01-21T23:19:32.996Z,2.90
2023-01-21T23:20:32.994Z,2.94
2023-01-21T23:21:33.009Z,2.95
2023-01-21T23:22:33.018Z,2.95
2023-01-21T23:23:32.975Z,3.01
2023-01-21T23:24:32.949Z,3.00